createdAt,value
2022-08-19T00:00:53.951Z,1003.81
2022-08-19T00:01:53.912Z,1003.80
2022-08-19T00:02:54.140Z,1003.80
2022-08-19T00:03:53.856Z,1003.77
2022-08-19T00:04:53.937Z,1003.76
2022-08-19T00:05:53.829Z,1003.73
2022-08-19T00:06:53.835Z,1003.66
2022-08-19T00:07:53.808Z,1003.64
2022-08-19T00:08:53.772Z,1003.62
2022-08-19T00:09:53.775Z,1003.63
2022-08-19T00:10:53.785Z,1003.62
2022-08-19T00:11:53.751Z,1003.66
2022-08-19T00:12:53.731Z,1003.69
2022-08-19T00:13:53.736Z,1003.69
2022-08-19T00:14:53.724Z,1003.66
2022-08-19T00:15:53.710Z,1003.65
2022-08-19T00:16:53.702Z,1003.63
2022-08-19T00:17:53.684Z,1003.65
2022-08-19T00:18:53.666Z,1003.66
2022-08-19T00:19:53.663Z,1003.68
2022-08-19T00:20:53.649Z,1003.66
2022-08-19T00:21:53.645Z,1003.66
2022-08-19T00:22:53.942Z,1003.69
2022-08-19T00:23:53.612Z,1003.71
2022-08-19T00:24:53.600Z,1003.77
2022-08-19T00:25:53.594Z,1003.76
2022-08-19T00:26:53.586Z,1003.81
2022-08-19T00:27:53.578Z,1003.79
2022-08-19T00:28:53.557Z,1003.79
2022-08-19T00:29:53.553Z,1003.83
2022-08-19T00:30:53.535Z,1003.81
2022-08-19T00:31:53.525Z,1003.81
2022-08-19T00:32:53.749Z,1003.75
2022-08-19T00:33:53.503Z,1003.78
2022-08-19T00:34:53.488Z,1003.73
2022-08-19T00:35:56.187Z,1003.71
2022-08-19T00:36:53.461Z,1003.69
2022-08-19T00:37:53.475Z,1003.63
2022-08-19T00:38:53.462Z,1003.64
2022-08-19T00:39:53.468Z,1003.66
2022-08-19T00:40:53.421Z,1003.61
2022-08-19T00:41:53.413Z,1003.56
2022-08-19T00:42:53.568Z,1003.52
2022-08-19T00:43:53.397Z,1003.50
2022-08-19T00:44:53.374Z,1003.46
2022-08-19T00:45:53.374Z,1003.46
2022-08-19T00:46:57.877Z,1003.41
2022-08-19T00:47:53.352Z,1003.38
2022-08-19T00:48:53.345Z,1003.37
2022-08-19T00:49:53.340Z,1003.33
2022-08-19T00:50:53.311Z,1003.35
2022-08-19T00:51:53.304Z,1003.34
2022-08-19T00:52:53.480Z,1003.36
2022-08-19T00:53:53.279Z,1003.34
2022-08-19T00:54:53.284Z,1003.33
2022-08-19T00:55:53.255Z,1003.37
2022-08-19T00:56:54.183Z,1003.41
2022-08-19T00:57:53.246Z,1003.40
2022-08-19T00:58:53.223Z,1003.44
2022-08-19T01:00:01.210Z,1003.43
2022-08-19T01:00:53.222Z,1003.46
2022-08-19T01:01:53.234Z,1003.49
2022-08-19T01:02:53.384Z,1003.52
2022-08-19T01:03:57.700Z,1003.53
2022-08-19T01:04:53.158Z,1003.52
2022-08-19T01:05:53.159Z,1003.46
2022-08-19T01:06:53.147Z,1003.48
2022-08-19T01:07:53.128Z,1003.46
2022-08-19T01:08:53.119Z,1003.54
2022-08-19T01:09:53.102Z,1003.53
2022-08-19T01:10:53.087Z,1003.55
2022-08-19T01:11:53.096Z,1003.57
2022-08-19T01:12:53.226Z,1003.58
2022-08-19T01:13:53.056Z,1003.57
2022-08-19T01:14:53.043Z,1003.55
2022-08-19T01:15:53.042Z,1003.55
2022-08-19T01:16:53.108Z,1003.52
2022-08-19T01:17:53.010Z,1003.54
2022-08-19T01:18:52.996Z,1003.54
2022-08-19T01:19:53.006Z,1003.57
2022-08-19T01:20:52.977Z,1003.58
2022-08-19T01:21:52.976Z,1003.59
2022-08-19T01:22:53.196Z,1003.59
2022-08-19T01:23:52.945Z,1003.58
2022-08-19T01:24:52.931Z,1003.64
2022-08-19T01:25:52.941Z,1003.65
2022-08-19T01:26:52.926Z,1003.63
2022-08-19T01:27:53.468Z,1003.56
2022-08-19T01:28:52.907Z,1003.55
2022-08-19T01:29:52.874Z,1003.60
2022-08-19T01:30:52.865Z,1003.65
2022-08-19T01:31:52.867Z,1003.67
2022-08-19T01:32:53.017Z,1003.68
2022-08-19T01:33:52.844Z,1003.67
2022-08-19T01:34:52.818Z,1003.70
2022-08-19T01:35:52.807Z,1003.77
2022-08-19T01:36:52.801Z,1003.79
2022-08-19T01:37:52.802Z,1003.74
2022-08-19T01:38:52.787Z,1003.73
2022-08-19T01:39:52.832Z,1003.70
2022-08-19T01:40:52.757Z,1003.73
2022-08-19T01:41:52.745Z,1003.77
2022-08-19T01:42:52.878Z,1003.75
2022-08-19T01:44:09.938Z,1003.71
2022-08-19T01:44:52.725Z,1003.70
2022-08-19T01:45:52.706Z,1003.69
2022-08-19T01:46:52.701Z,1003.72
2022-08-19T01:48:01.064Z,1003.73
2022-08-19T01:48:52.684Z,1003.79
2022-08-19T01:49:52.711Z,1003.87
2022-08-19T01:50:52.648Z,1003.90
2022-08-19T01:51:52.641Z,1003.91
2022-08-19T01:53:06.179Z,1003.96
2022-08-19T01:53:52.622Z,1003.94
2022-08-19T01:54:52.597Z,1003.96
2022-08-19T01:55:52.620Z,1003.91
2022-08-19T01:56:52.579Z,1003.95
2022-08-19T01:57:52.572Z,1004.08
2022-08-19T01:58:52.555Z,1004.09
2022-08-19T01:59:52.546Z,1004.13
2022-08-19T02:00:52.540Z,1004.03
2022-08-19T02:01:52.620Z,1004.05
2022-08-19T02:02:52.671Z,1003.98
2022-08-19T02:03:52.502Z,1004.00
2022-08-19T02:04:52.496Z,1003.97
2022-08-19T02:05:52.498Z,1003.89
2022-08-19T02:06:52.480Z,1003.81
2022-08-19T02:07:52.460Z,1003.70
2022-08-19T02:08:52.455Z,1003.63
2022-08-19T02:09:52.438Z,1003.54
2022-08-19T02:10:52.418Z,1003.47
2022-08-19T02:11:52.418Z,1003.40
2022-08-19T02:12:52.664Z,1003.31
2022-08-19T02:13:52.388Z,1003.29
2022-08-19T02:14:52.379Z,1003.32
2022-08-19T02:15:52.364Z,1003.26
2022-08-19T02:16:52.374Z,1003.21
2022-08-19T02:17:52.352Z,1003.11
2022-08-19T02:18:52.341Z,1003.04
2022-08-19T02:19:52.320Z,1002.99
2022-08-19T02:20:52.313Z,1002.97
2022-08-19T02:21:52.313Z,1002.96
2022-08-19T02:22:52.571Z,1002.95
2022-08-19T02:23:52.302Z,1002.89
2022-08-19T02:24:52.273Z,1002.89
2022-08-19T02:25:52.260Z,1002.82
2022-08-19T02:26:52.250Z,1002.79
2022-08-19T02:27:52.248Z,1002.75
2022-08-19T02:28:52.234Z,1002.74
2022-08-19T02:29:52.209Z,1002.76
2022-08-19T02:30:52.197Z,1002.75
2022-08-19T02:31:52.186Z,1002.70
2022-08-19T02:32:52.191Z,1002.72
2022-08-19T02:33:52.169Z,1002.72
2022-08-19T02:34:52.164Z,1002.70
2022-08-19T02:35:52.141Z,1002.64
2022-08-19T02:36:52.456Z,1002.61
2022-08-19T02:37:52.129Z,1002.49
2022-08-19T02:38:54.703Z,1002.41
2022-08-19T02:39:52.146Z,1002.39
2022-08-19T02:40:52.097Z,1002.41
2022-08-19T02:41:52.087Z,1002.45
2022-08-19T02:42:52.360Z,1002.43
2022-08-19T02:44:22.854Z,1002.40
2022-08-19T02:44:52.070Z,1002.33
2022-08-19T02:45:52.035Z,1002.30
2022-08-19T02:46:52.534Z,1002.31
2022-08-19T02:47:52.018Z,1002.33
2022-08-19T02:48:52.012Z,1002.37
2022-08-19T02:49:52.008Z,1002.45
2022-08-19T02:50:53.451Z,1002.48
2022-08-19T02:51:51.973Z,1002.57
2022-08-19T02:52:52.185Z,1002.57
2022-08-19T02:53:51.961Z,1002.61
2022-08-19T02:54:51.965Z,1002.67
2022-08-19T02:55:51.941Z,1002.70
2022-08-19T02:56:51.943Z,1002.63
2022-08-19T02:57:51.906Z,1002.67
2022-08-19T02:58:51.910Z,1002.61
2022-08-19T02:59:51.901Z,1002.56
2022-08-19T03:00:51.976Z,1002.57
2022-08-19T03:01:51.867Z,1002.69
2022-08-19T03:02:51.885Z,1002.72
2022-08-19T03:03:51.849Z,1002.77
2022-08-19T03:04:51.854Z,1002.81
2022-08-19T03:05:56.748Z,1002.83
2022-08-19T03:06:51.881Z,1002.81
2022-08-19T03:07:51.798Z,1002.79
2022-08-19T03:08:51.789Z,1002.76
2022-08-19T03:09:51.799Z,1002.75
2022-08-19T03:10:51.799Z,1002.79
2022-08-19T03:11:52.789Z,1002.80
2022-08-19T03:12:51.900Z,1002.77
2022-08-19T03:13:51.740Z,1002.79
2022-08-19T03:14:51.729Z,1002.83
2022-08-19T03:15:51.722Z,1002.82
2022-08-19T03:16:51.721Z,1002.80
2022-08-19T03:17:51.703Z,1002.82
2022-08-19T03:18:51.699Z,1002.79
2022-08-19T03:19:51.676Z,1002.80
2022-08-19T03:20:51.672Z,1002.79
2022-08-19T03:21:51.658Z,1002.75
2022-08-19T03:22:51.822Z,1002.74
2022-08-19T03:23:51.643Z,1002.74
2022-08-19T03:24:51.631Z,1002.71
2022-08-19T03:26:02.842Z,1002.70
2022-08-19T03:26:51.616Z,1002.66
2022-08-19T03:27:51.583Z,1002.67
2022-08-19T03:28:58.539Z,1002.68
2022-08-19T03:29:51.581Z,1002.63
2022-08-19T03:30:51.579Z,1002.62
2022-08-19T03:31:52.224Z,1002.60
2022-08-19T03:32:57.175Z,1002.58
2022-08-19T03:33:51.533Z,1002.55
2022-08-19T03:34:51.531Z,1002.51
2022-08-19T03:35:51.508Z,1002.54
2022-08-19T03:36:51.520Z,1002.59
2022-08-19T03:37:51.482Z,1002.59
2022-08-19T03:38:51.475Z,1002.63
2022-08-19T03:39:51.517Z,1002.62
2022-08-19T03:40:51.453Z,1002.56
2022-08-19T03:42:32.456Z,1002.53
2022-08-19T03:42:51.460Z,1002.50
2022-08-19T03:43:51.422Z,1002.48
2022-08-19T03:44:51.415Z,1002.50
2022-08-19T03:45:51.392Z,1002.52
2022-08-19T03:46:51.385Z,1002.57
2022-08-19T03:47:51.401Z,1002.60
2022-08-19T03:48:51.365Z,1002.60
2022-08-19T03:49:51.354Z,1002.63
2022-08-19T03:50:51.348Z,1002.62
2022-08-19T03:51:51.338Z,1002.62
2022-08-19T03:52:51.558Z,1002.58
2022-08-19T03:53:51.305Z,1002.59
2022-08-19T03:54:51.297Z,1002.58
2022-08-19T03:55:51.288Z,1002.59
2022-08-19T03:56:51.285Z,1002.56
2022-08-19T03:57:51.299Z,1002.58
2022-08-19T03:58:51.260Z,1002.56
2022-08-19T03:59:51.242Z,1002.58
2022-08-19T04:00:51.268Z,1002.60
2022-08-19T04:01:51.223Z,1002.61
2022-08-19T04:02:58.832Z,1002.56
2022-08-19T04:03:51.214Z,1002.56
2022-08-19T04:04:51.193Z,1002.58
2022-08-19T04:05:51.184Z,1002.59
2022-08-19T04:06:51.176Z,1002.54
2022-08-19T04:07:51.159Z,1002.57
2022-08-19T04:08:51.200Z,1002.58
2022-08-19T04:09:51.137Z,1002.59
2022-08-19T04:10:51.131Z,1002.59
2022-08-19T04:11:51.116Z,1002.60
2022-08-19T04:12:51.202Z,1002.64
2022-08-19T04:13:51.094Z,1002.69
2022-08-19T04:14:51.098Z,1002.75
2022-08-19T04:15:51.082Z,1002.73
2022-08-19T04:16:51.071Z,1002.82
2022-08-19T04:17:51.048Z,1002.81
2022-08-19T04:18:51.042Z,1002.80
2022-08-19T04:19:51.066Z,1002.81
2022-08-19T04:20:51.035Z,1002.79
2022-08-19T04:21:51.011Z,1002.84
2022-08-19T04:22:51.031Z,1002.80
2022-08-19T04:23:51.009Z,1002.79
2022-08-19T04:24:50.973Z,1002.83
2022-08-19T04:25:50.976Z,1002.85
2022-08-19T04:26:50.962Z,1002.90
2022-08-19T04:27:50.941Z,1002.89
2022-08-19T04:28:50.945Z,1002.90
2022-08-19T04:29:50.928Z,1002.90
2022-08-19T04:30:50.961Z,1002.93
2022-08-19T04:31:50.903Z,1002.96
2022-08-19T04:32:50.894Z,1002.98
2022-08-19T04:33:50.877Z,1002.94
2022-08-19T04:35:02.717Z,1002.96
2022-08-19T04:35:50.870Z,1002.92
2022-08-19T04:36:50.859Z,1002.88
2022-08-19T04:37:50.838Z,1002.85
2022-08-19T04:38:50.823Z,1002.82
2022-08-19T04:39:50.926Z,1002.80
2022-08-19T04:40:50.801Z,1002.82
2022-08-19T04:41:50.805Z,1002.79
2022-08-19T04:42:50.791Z,1002.75
2022-08-19T04:43:50.772Z,1002.74
2022-08-19T04:44:50.766Z,1002.74
2022-08-19T04:45:50.748Z,1002.72
2022-08-19T04:46:51.400Z,1002.75
2022-08-19T04:47:58.280Z,1002.80
2022-08-19T04:48:50.728Z,1002.85
2022-08-19T04:49:50.713Z,1002.84
2022-08-19T04:50:50.707Z,1002.88
2022-08-19T04:51:50.702Z,1002.89
2022-08-19T04:52:50.690Z,1002.88
2022-08-19T04:53:50.662Z,1002.88
2022-08-19T04:54:50.656Z,1002.84
2022-08-19T04:55:50.651Z,1002.86
2022-08-19T04:56:50.637Z,1002.84
2022-08-19T04:57:50.633Z,1002.87
2022-08-19T04:58:50.627Z,1002.89
2022-08-19T04:59:50.599Z,1002.91
2022-08-19T05:00:50.650Z,1002.88
2022-08-19T05:01:50.590Z,1002.85
2022-08-19T05:02:50.619Z,1002.81
2022-08-19T05:03:50.559Z,1002.76
2022-08-19T05:04:50.554Z,1002.76
2022-08-19T05:05:50.536Z,1002.77
2022-08-19T05:06:50.524Z,1002.71
2022-08-19T05:07:50.515Z,1002.67
2022-08-19T05:08:50.624Z,1002.66
2022-08-19T05:09:57.730Z,1002.65
2022-08-19T05:10:50.504Z,1002.62
2022-08-19T05:11:50.469Z,1002.65
2022-08-19T05:12:50.470Z,1002.60
2022-08-19T05:13:50.472Z,1002.59
2022-08-19T05:14:50.441Z,1002.59
2022-08-19T05:15:50.428Z,1002.60
2022-08-19T05:16:55.914Z,1002.59
2022-08-19T05:17:50.422Z,1002.64
2022-08-19T05:18:50.416Z,1002.63
2022-08-19T05:19:50.389Z,1002.65
2022-08-19T05:20:50.387Z,1002.63
2022-08-19T05:21:50.365Z,1002.62
2022-08-19T05:22:50.383Z,1002.60
2022-08-19T05:23:50.340Z,1002.59
2022-08-19T05:25:11.261Z,1002.54
2022-08-19T05:25:50.333Z,1002.55
2022-08-19T05:26:50.325Z,1002.57
2022-08-19T05:27:50.307Z,1002.55
2022-08-19T05:28:54.509Z,1002.55
2022-08-19T05:29:50.285Z,1002.53
2022-08-19T05:30:50.287Z,1002.53
2022-08-19T05:31:50.260Z,1002.54
2022-08-19T05:32:50.383Z,1002.52
2022-08-19T05:33:50.240Z,1002.50
2022-08-19T05:34:50.223Z,1002.51
2022-08-19T05:35:50.231Z,1002.60
2022-08-19T05:36:50.201Z,1002.55
2022-08-19T05:37:50.191Z,1002.57
2022-08-19T05:38:50.190Z,1002.57
2022-08-19T05:39:51.717Z,1002.56
2022-08-19T05:40:50.162Z,1002.56
2022-08-19T05:41:50.161Z,1002.54
2022-08-19T05:42:55.311Z,1002.57
2022-08-19T05:43:50.127Z,1002.58
2022-08-19T05:44:50.122Z,1002.54
2022-08-19T05:45:50.106Z,1002.57
2022-08-19T05:46:50.096Z,1002.57
2022-08-19T05:47:50.079Z,1002.57
2022-08-19T05:48:50.071Z,1002.57
2022-08-19T05:49:50.057Z,1002.56
2022-08-19T05:50:50.048Z,1002.55
2022-08-19T05:51:50.054Z,1002.56
2022-08-19T05:52:50.645Z,1002.58
2022-08-19T05:53:50.004Z,1002.60
2022-08-19T05:54:50.850Z,1002.63
2022-08-19T05:55:49.988Z,1002.63
2022-08-19T05:56:49.984Z,1002.66
2022-08-19T05:57:49.997Z,1002.68
2022-08-19T05:58:49.964Z,1002.71
2022-08-19T05:59:52.789Z,1002.78
2022-08-19T06:00:49.945Z,1002.79
2022-08-19T06:01:49.933Z,1002.81
2022-08-19T06:02:50.083Z,1002.81
2022-08-19T06:03:49.906Z,1002.84
2022-08-19T06:04:49.903Z,1002.80
2022-08-19T06:05:52.237Z,1002.79
2022-08-19T06:06:49.874Z,1002.82
2022-08-19T06:07:50.022Z,1002.82
2022-08-19T06:08:49.844Z,1002.86
2022-08-19T06:09:56.047Z,1002.83
2022-08-19T06:10:49.859Z,1002.86
2022-08-19T06:11:52.857Z,1002.87
2022-08-19T06:12:49.802Z,1002.84
2022-08-19T06:13:49.802Z,1002.81
2022-08-19T06:15:00.664Z,1002.81
2022-08-19T06:15:49.776Z,1002.73
2022-08-19T06:16:49.764Z,1002.69
2022-08-19T06:17:49.785Z,1002.67
2022-08-19T06:18:49.746Z,1002.69
2022-08-19T06:19:49.739Z,1002.66
2022-08-19T06:20:55.797Z,1002.63
2022-08-19T06:21:49.703Z,1002.65
2022-08-19T06:22:49.691Z,1002.67
2022-08-19T06:23:49.678Z,1002.71
2022-08-19T06:24:49.680Z,1002.68
2022-08-19T06:25:49.661Z,1002.74
2022-08-19T06:26:49.710Z,1002.73
2022-08-19T06:28:13.413Z,1002.77
2022-08-19T06:28:49.643Z,1002.83
2022-08-19T06:29:49.640Z,1002.83
2022-08-19T06:30:49.614Z,1002.85
2022-08-19T06:31:49.601Z,1002.81
2022-08-19T06:32:49.581Z,1002.80
2022-08-19T06:33:50.214Z,1002.82
2022-08-19T06:34:49.583Z,1002.87
2022-08-19T06:35:49.557Z,1002.84
2022-08-19T06:36:49.545Z,1002.88
2022-08-19T06:37:49.543Z,1002.89
2022-08-19T06:38:49.556Z,1002.95
2022-08-19T06:39:49.568Z,1002.97
2022-08-19T06:40:49.511Z,1002.99
2022-08-19T06:41:52.466Z,1003.04
2022-08-19T06:42:54.273Z,1003.08
2022-08-19T06:43:49.479Z,1003.06
2022-08-19T06:44:49.476Z,1003.11
2022-08-19T06:45:49.454Z,1003.16
2022-08-19T06:46:54.615Z,1003.19
2022-08-19T06:47:49.430Z,1003.24
2022-08-19T06:48:49.414Z,1003.22
2022-08-19T06:49:49.407Z,1003.23
2022-08-19T06:50:49.414Z,1003.27
2022-08-19T06:51:49.451Z,1003.29
2022-08-19T06:52:49.449Z,1003.26
2022-08-19T06:54:56.397Z,1003.22
2022-08-19T06:55:49.341Z,1003.23
2022-08-19T06:56:49.334Z,1003.25
2022-08-19T06:57:49.536Z,1003.27
2022-08-19T06:58:49.310Z,1003.29
2022-08-19T06:59:49.312Z,1003.30
2022-08-19T07:00:49.296Z,1003.34
2022-08-19T07:01:49.283Z,1003.30
2022-08-19T07:02:53.273Z,1003.29
2022-08-19T07:03:49.261Z,1003.25
2022-08-19T07:04:52.603Z,1003.24
2022-08-19T07:05:49.257Z,1003.20
2022-08-19T07:06:55.134Z,1003.20
2022-08-19T07:07:49.231Z,1003.16
2022-08-19T07:08:49.194Z,1003.13
2022-08-19T07:09:58.399Z,1003.12
2022-08-19T07:10:49.184Z,1003.11
2022-08-19T07:11:49.174Z,1003.05
2022-08-19T07:12:49.299Z,1003.04
2022-08-19T07:13:49.162Z,1003.04
2022-08-19T07:14:49.136Z,1003.07
2022-08-19T07:15:49.126Z,1003.06
2022-08-19T07:16:49.115Z,1003.04
2022-08-19T07:17:49.364Z,1003.03
2022-08-19T07:18:49.097Z,1003.04
2022-08-19T07:19:49.081Z,1003.08
2022-08-19T07:20:49.063Z,1003.12
2022-08-19T07:21:49.065Z,1003.10
2022-08-19T07:22:49.132Z,1003.15
2022-08-19T07:23:49.056Z,1003.20
2022-08-19T07:24:51.549Z,1003.22
2022-08-19T07:25:52.751Z,1003.23
2022-08-19T07:26:51.684Z,1003.23
2022-08-19T07:27:49.002Z,1003.25
2022-08-19T07:28:51.385Z,1003.24
2022-08-19T07:29:48.968Z,1003.30
2022-08-19T07:30:48.981Z,1003.30
2022-08-19T07:31:48.968Z,1003.37
2022-08-19T07:32:48.937Z,1003.36
2022-08-19T07:33:48.945Z,1003.38
2022-08-19T07:34:48.939Z,1003.42
2022-08-19T07:35:48.917Z,1003.45
2022-08-19T07:36:48.903Z,1003.45
2022-08-19T07:37:48.887Z,1003.50
2022-08-19T07:38:48.873Z,1003.47
2022-08-19T07:39:48.943Z,1003.49
2022-08-19T07:40:48.861Z,1003.53
2022-08-19T07:41:48.863Z,1003.52
2022-08-19T07:42:48.832Z,1003.56
2022-08-19T07:43:48.820Z,1003.53
2022-08-19T07:44:50.434Z,1003.54
2022-08-19T07:45:48.800Z,1003.56
2022-08-19T07:46:51.486Z,1003.53
2022-08-19T07:47:58.639Z,1003.53
2022-08-19T07:48:48.770Z,1003.55
2022-08-19T07:49:48.762Z,1003.52
2022-08-19T07:50:48.752Z,1003.55
2022-08-19T07:51:48.735Z,1003.57
2022-08-19T07:52:49.075Z,1003.56
2022-08-19T07:53:48.705Z,1003.58
2022-08-19T07:54:48.698Z,1003.58
2022-08-19T07:55:48.700Z,1003.63
2022-08-19T07:56:48.669Z,1003.66
2022-08-19T07:57:48.682Z,1003.64
2022-08-19T07:58:48.687Z,1003.65
2022-08-19T07:59:48.650Z,1003.67
2022-08-19T08:00:48.655Z,1003.68
2022-08-19T08:01:48.712Z,1003.71
2022-08-19T08:02:48.718Z,1003.72
2022-08-19T08:03:48.593Z,1003.71
2022-08-19T08:04:48.591Z,1003.69
2022-08-19T08:05:48.602Z,1003.67
2022-08-19T08:06:48.566Z,1003.70
2022-08-19T08:07:48.569Z,1003.73
2022-08-19T08:08:48.649Z,1003.76
2022-08-19T08:09:49.648Z,1003.75
2022-08-19T08:10:48.713Z,1003.75
2022-08-19T08:11:48.544Z,1003.81
2022-08-19T08:13:08.728Z,1003.83
2022-08-19T08:13:48.494Z,1003.88
2022-08-19T08:14:48.500Z,1003.85
2022-08-19T08:15:48.467Z,1003.86
2022-08-19T08:16:48.465Z,1003.91
2022-08-19T08:17:51.313Z,1003.93
2022-08-19T08:18:50.239Z,1003.94
2022-08-19T08:19:48.427Z,1003.92
2022-08-19T08:20:48.413Z,1003.86
2022-08-19T08:21:48.419Z,1003.91
2022-08-19T08:22:48.482Z,1003.94
2022-08-19T08:23:48.556Z,1003.91
2022-08-19T08:24:48.368Z,1003.94
2022-08-19T08:25:49.217Z,1003.92
2022-08-19T08:26:52.201Z,1003.96
2022-08-19T08:27:48.420Z,1003.98
2022-08-19T08:28:49.518Z,1004.00
2022-08-19T08:29:48.313Z,1004.02
2022-08-19T08:30:48.304Z,1004.03
2022-08-19T08:31:48.285Z,1004.04
2022-08-19T08:32:48.286Z,1003.99
2022-08-19T08:33:48.284Z,1003.97
2022-08-19T08:34:51.762Z,1003.97
2022-08-19T08:35:48.257Z,1003.97
2022-08-19T08:36:48.228Z,1003.96
2022-08-19T08:37:49.855Z,1003.95
2022-08-19T08:38:48.309Z,1003.92
2022-08-19T08:39:48.392Z,1003.93
2022-08-19T08:40:48.192Z,1003.92
2022-08-19T08:41:48.180Z,1003.94
2022-08-19T08:42:48.235Z,1003.96
2022-08-19T08:43:48.159Z,1003.98
2022-08-19T08:44:48.183Z,1004.00
2022-08-19T08:45:53.722Z,1004.01
2022-08-19T08:46:48.127Z,1004.05
2022-08-19T08:47:48.170Z,1004.01
2022-08-19T08:48:48.097Z,1004.04
2022-08-19T08:49:48.113Z,1004.07
2022-08-19T08:50:48.097Z,1004.08
2022-08-19T08:51:48.070Z,1004.07
2022-08-19T08:52:48.133Z,1004.02
2022-08-19T08:53:48.058Z,1004.02
2022-08-19T08:54:54.742Z,1004.02
2022-08-19T08:55:48.044Z,1004.00
2022-08-19T08:56:48.021Z,1004.02
2022-08-19T08:57:48.072Z,1004.01
2022-08-19T08:58:51.468Z,1004.02
2022-08-19T08:59:47.996Z,1004.07
2022-08-19T09:00:47.974Z,1004.07
2022-08-19T09:01:48.023Z,1004.12
2022-08-19T09:02:50.307Z,1004.12
2022-08-19T09:03:47.955Z,1004.12
2022-08-19T09:04:47.928Z,1004.22
2022-08-19T09:05:48.573Z,1004.22
2022-08-19T09:06:47.906Z,1004.18
2022-08-19T09:07:47.902Z,1004.14
2022-08-19T09:08:47.891Z,1004.16
2022-08-19T09:09:47.871Z,1004.14
2022-08-19T09:10:47.872Z,1004.17
2022-08-19T09:11:47.858Z,1004.11
2022-08-19T09:12:47.850Z,1004.10
2022-08-19T09:13:47.829Z,1004.09
2022-08-19T09:14:50.739Z,1004.09
2022-08-19T09:15:47.808Z,1004.09
2022-08-19T09:16:47.804Z,1004.10
2022-08-19T09:17:51.679Z,1004.09
2022-08-19T09:18:47.764Z,1004.08
2022-08-19T09:19:47.756Z,1004.04
2022-08-19T09:20:47.747Z,1004.05
2022-08-19T09:21:47.747Z,1004.04
2022-08-19T09:22:47.736Z,1004.04
2022-08-19T09:23:47.718Z,1004.02
2022-08-19T09:24:47.712Z,1004.03
2022-08-19T09:25:47.695Z,1003.96
2022-08-19T09:26:52.338Z,1004.04
2022-08-19T09:27:47.688Z,1004.02
2022-08-19T09:28:48.758Z,1003.99
2022-08-19T09:29:47.663Z,1004.01
2022-08-19T09:30:47.632Z,1004.02
2022-08-19T09:31:47.644Z,1003.99
2022-08-19T09:32:47.621Z,1003.97
2022-08-19T09:33:47.625Z,1003.96
2022-08-19T09:34:51.208Z,1003.93
2022-08-19T09:35:53.094Z,1003.92
2022-08-19T09:36:47.586Z,1003.90
2022-08-19T09:37:47.683Z,1003.89
2022-08-19T09:38:47.552Z,1003.88
2022-08-19T09:39:47.617Z,1003.87
2022-08-19T09:40:47.548Z,1003.94
2022-08-19T09:41:49.014Z,1003.95
2022-08-19T09:42:50.379Z,1003.93
2022-08-19T09:43:47.781Z,1003.97
2022-08-19T09:44:47.479Z,1003.93
2022-08-19T09:45:47.490Z,1003.91
2022-08-19T09:46:47.465Z,1003.89
2022-08-19T09:47:47.464Z,1003.88
2022-08-19T09:48:47.440Z,1003.84
2022-08-19T09:49:47.445Z,1003.83
2022-08-19T09:50:51.557Z,1003.89
2022-08-19T09:51:51.043Z,1003.90
2022-08-19T09:52:54.058Z,1003.91
2022-08-19T09:53:47.402Z,1003.92
2022-08-19T09:54:52.089Z,1003.96
2022-08-19T09:55:47.376Z,1003.96
2022-08-19T09:56:47.364Z,1004.00
2022-08-19T09:57:47.357Z,1003.99
2022-08-19T09:58:47.333Z,1003.99
2022-08-19T09:59:47.324Z,1003.98
2022-08-19T10:00:51.039Z,1004.02
2022-08-19T10:01:47.367Z,1004.01
2022-08-19T10:02:47.301Z,1004.02
2022-08-19T10:03:47.284Z,1004.05
2022-08-19T10:04:47.279Z,1004.02
2022-08-19T10:05:48.596Z,1003.96
2022-08-19T10:06:47.250Z,1003.99
2022-08-19T10:07:47.247Z,1004.01
2022-08-19T10:08:49.984Z,1004.00
2022-08-19T10:09:47.221Z,1003.96
2022-08-19T10:10:47.317Z,1004.00
2022-08-19T10:11:54.604Z,1003.98
2022-08-19T10:12:47.231Z,1003.99
2022-08-19T10:13:47.167Z,1003.98
2022-08-19T10:14:47.158Z,1003.95
2022-08-19T10:15:49.393Z,1003.94
2022-08-19T10:16:47.139Z,1003.91
2022-08-19T10:17:48.066Z,1003.92
2022-08-19T10:18:49.769Z,1003.89
2022-08-19T10:19:53.841Z,1003.89
2022-08-19T10:20:51.621Z,1003.84
2022-08-19T10:21:47.089Z,1003.79
2022-08-19T10:22:47.077Z,1003.83
2022-08-19T10:23:47.404Z,1003.84
2022-08-19T10:24:47.051Z,1003.85
2022-08-19T10:25:47.038Z,1003.84
2022-08-19T10:26:47.024Z,1003.84
2022-08-19T10:27:51.221Z,1003.87
2022-08-19T10:28:47.164Z,1003.86
2022-08-19T10:29:47.006Z,1003.79
2022-08-19T10:30:46.977Z,1003.81
2022-08-19T10:31:59.903Z,1003.80
2022-08-19T10:32:46.973Z,1003.75
2022-08-19T10:33:53.568Z,1003.76
2022-08-19T10:34:48.453Z,1003.80
2022-08-19T10:35:56.892Z,1003.79
2022-08-19T10:36:56.423Z,1003.77
2022-08-19T10:37:56.826Z,1003.74
2022-08-19T10:38:52.324Z,1003.75
2022-08-19T10:39:46.958Z,1003.82
2022-08-19T10:40:46.890Z,1003.77
2022-08-19T10:41:46.863Z,1003.84
2022-08-19T10:42:46.859Z,1003.86
2022-08-19T10:43:46.848Z,1003.89
2022-08-19T10:44:46.829Z,1003.87
2022-08-19T10:45:52.446Z,1003.88
2022-08-19T10:46:48.843Z,1003.86
2022-08-19T10:47:46.804Z,1003.87
2022-08-19T10:48:46.794Z,1003.89
2022-08-19T10:49:46.793Z,1003.89
2022-08-19T10:50:46.807Z,1003.91
2022-08-19T10:51:47.954Z,1003.94
2022-08-19T10:52:49.072Z,1003.92
2022-08-19T10:53:46.752Z,1003.94
2022-08-19T10:54:46.730Z,1003.87
2022-08-19T10:55:46.726Z,1003.90
2022-08-19T10:56:46.716Z,1003.90
2022-08-19T10:58:01.687Z,1003.89
2022-08-19T10:58:46.697Z,1003.93
2022-08-19T10:59:46.688Z,1003.90
2022-08-19T11:00:46.719Z,1003.93
2022-08-19T11:01:46.667Z,1003.94
2022-08-19T11:02:46.675Z,1003.91
2022-08-19T11:03:46.628Z,1003.89
2022-08-19T11:04:46.620Z,1003.89
2022-08-19T11:05:46.610Z,1003.90
2022-08-19T11:06:46.594Z,1003.94
2022-08-19T11:07:46.639Z,1003.99
2022-08-19T11:08:46.580Z,1003.97
2022-08-19T11:09:46.570Z,1003.96
2022-08-19T11:10:50.417Z,1003.99
2022-08-19T11:11:46.545Z,1003.98
2022-08-19T11:12:46.650Z,1003.98
2022-08-19T11:13:46.531Z,1003.97
2022-08-19T11:14:46.558Z,1003.95
2022-08-19T11:15:46.539Z,1003.99
2022-08-19T11:16:46.482Z,1003.99
2022-08-19T11:17:46.482Z,1004.00
2022-08-19T11:18:46.492Z,1004.03
2022-08-19T11:19:46.474Z,1004.06
2022-08-19T11:20:46.448Z,1004.10
2022-08-19T11:21:46.441Z,1004.09
2022-08-19T11:22:46.420Z,1004.09
2022-08-19T11:23:46.429Z,1004.08
2022-08-19T11:24:46.407Z,1004.07
2022-08-19T11:25:46.399Z,1004.09
2022-08-19T11:26:46.385Z,1004.07
2022-08-19T11:27:46.375Z,1004.08
2022-08-19T11:28:46.363Z,1004.08
2022-08-19T11:29:46.346Z,1004.10
2022-08-19T11:30:46.337Z,1004.09
2022-08-19T11:31:46.332Z,1004.10
2022-08-19T11:32:49.354Z,1004.09
2022-08-19T11:33:47.855Z,1004.09
2022-08-19T11:34:46.304Z,1004.07
2022-08-19T11:35:46.285Z,1004.06
2022-08-19T11:36:46.272Z,1004.10
2022-08-19T11:37:46.271Z,1004.10
2022-08-19T11:38:46.245Z,1004.06
2022-08-19T11:39:46.316Z,1004.09
2022-08-19T11:40:46.239Z,1004.07
2022-08-19T11:41:46.221Z,1004.07
2022-08-19T11:42:46.224Z,1004.11
2022-08-19T11:43:46.208Z,1004.13
2022-08-19T11:44:46.204Z,1004.09
2022-08-19T11:45:46.179Z,1004.09
2022-08-19T11:46:46.171Z,1004.06
2022-08-19T11:47:46.158Z,1004.03
2022-08-19T11:48:46.141Z,1004.07
2022-08-19T11:49:46.142Z,1004.07
2022-08-19T11:50:46.142Z,1004.08
2022-08-19T11:51:46.110Z,1004.10
2022-08-19T11:52:46.097Z,1004.13
2022-08-19T11:53:46.085Z,1004.13
2022-08-19T11:54:46.079Z,1004.13
2022-08-19T11:55:46.114Z,1004.20
2022-08-19T11:56:46.051Z,1004.21
2022-08-19T11:57:46.039Z,1004.26
2022-08-19T11:58:46.030Z,1004.27
2022-08-19T11:59:46.017Z,1004.28
2022-08-19T12:00:46.017Z,1004.30
2022-08-19T12:01:46.018Z,1004.32
2022-08-19T12:02:45.983Z,1004.28
2022-08-19T12:03:46.112Z,1004.31
2022-08-19T12:04:45.968Z,1004.35
2022-08-19T12:05:45.963Z,1004.35
2022-08-19T12:06:45.954Z,1004.35